Time;durP1;ratioP1;P1;durP2;ratioP2;P2;SDS_P1;SDS_P2;PMS_P1;PMS_P2;Temp;Humidity;BMP_temperature;BMP_pressure;BME280_temperature;BME280_humidity;BME280_pressure;Samples;Min_cycle;Max_cycle;Signal;HPM_P1;HPM_P2
2021/07/18 00:02:23;;;;;;;;;;;16.30;96.00;;;;;;4942504;28;20332;-66
2021/07/18 00:04:50;;;;;;;;;;;16.30;96.10;;;;;;4943486;28;19921;-66
2021/07/18 00:07:15;;;;;;;;;;;16.30;96.10;;;;;;4940863;28;19918;-65
2021/07/18 00:09:41;;;;;;;;;;;16.30;96.20;;;;;;4937299;28;19977;-67
2021/07/18 00:12:06;;;;;;;;;;;16.30;96.10;;;;;;4943121;28;19923;-66
2021/07/18 00:14:32;;;;;;;;;;;16.20;96.10;;;;;;4939488;29;19919;-67
2021/07/18 00:16:58;;;;;;;;;;;16.20;95.80;;;;;;4942021;28;19989;-67
2021/07/18 00:19:23;;;;;;;;;;;16.20;96.00;;;;;;4936753;28;20001;-67
2021/07/18 00:21:49;;;;;;;;;;;16.10;96.30;;;;;;4937521;28;20302;-66
2021/07/18 00:24:14;;;;;;;;;;;16.10;96.50;;;;;;4936532;28;20025;-66
2021/07/18 00:26:52;;;;;;;;;;;16.00;96.50;;;;;;4936172;28;20017;-70
2021/07/18 00:29:17;;;;;;;;;;;16.00;96.60;;;;;;4937111;28;20400;-67
2021/07/18 00:31:42;;;;;;;;;;;16.00;96.70;;;;;;4943126;28;20008;-68
2021/07/18 00:34:08;;;;;;;;;;;16.00;96.60;;;;;;4939904;29;19929;-68
2021/07/18 00:36:33;;;;;;;;;;;16.00;96.60;;;;;;4935694;28;20377;-67
2021/07/18 00:38:59;;;;;;;;;;;16.00;96.70;;;;;;4938820;29;19919;-67
2021/07/18 00:41:25;;;;;;;;;;;16.00;96.70;;;;;;4940664;28;20427;-68
2021/07/18 00:43:50;;;;;;;;;;;16.00;96.70;;;;;;4954940;28;19989;-67
2021/07/18 00:46:16;;;;;;;;;;;16.00;96.70;;;;;;4939575;29;19919;-69
2021/07/18 00:48:41;;;;;;;;;;;16.00;96.50;;;;;;4939167;28;20361;-68
2021/07/18 00:51:07;;;;;;;;;;;16.00;96.60;;;;;;4939611;28;19968;-67
2021/07/18 00:53:32;;;;;;;;;;;15.90;96.60;;;;;;4940990;28;19977;-67
2021/07/18 00:55:58;;;;;;;;;;;15.80;96.70;;;;;;4934124;29;19926;-68
2021/07/18 00:58:25;;;;;;;;;;;15.80;96.80;;;;;;4937487;29;19915;-67
2021/07/18 01:00:51;;;;;;;;;;;15.80;96.70;;;;;;4940557;28;20009;-67
2021/07/18 01:03:17;;;;;;;;;;;15.80;96.80;;;;;;4935617;28;20013;-66
2021/07/18 01:05:43;;;;;;;;;;;15.70;96.90;;;;;;4954535;28;20036;-67
2021/07/18 01:08:09;;;;;;;;;;;15.70;96.90;;;;;;4937353;28;20049;-68
2021/07/18 01:10:34;;;;;;;;;;;15.70;96.80;;;;;;4942887;28;19915;-67
2021/07/18 01:13:00;;;;;;;;;;;15.70;96.90;;;;;;4939001;29;20285;-67
2021/07/18 01:15:26;;;;;;;;;;;15.70;96.80;;;;;;4941779;28;19970;-67
2021/07/18 01:17:51;;;;;;;;;;;15.70;96.90;;;;;;4942544;28;19961;-68
2021/07/18 01:20:17;;;;;;;;;;;15.70;96.80;;;;;;4942161;28;19930;-68
2021/07/18 01:22:42;;;;;;;;;;;15.60;96.80;;;;;;4937317;28;19937;-65
2021/07/18 01:25:09;;;;;;;;;;;15.60;96.80;;;;;;4936200;28;20013;-68
2021/07/18 01:27:35;;;;;;;;;;;15.60;97.00;;;;;;4936281;28;19941;-67
2021/07/18 01:30:03;;;;;;;;;;;15.50;97.00;;;;;;4938600;28;19915;-67
2021/07/18 01:32:29;;;;;;;;;;;15.50;97.00;;;;;;4941458;28;19926;-65
2021/07/18 01:34:54;;;;;;;;;;;15.50;97.10;;;;;;4942148;28;19993;-66
2021/07/18 01:37:20;;;;;;;;;;;15.50;97.20;;;;;;4940514;28;20056;-66
2021/07/18 01:39:46;;;;;;;;;;;15.50;97.20;;;;;;4942640;29;19994;-66
2021/07/18 01:42:12;;;;;;;;;;;15.50;97.30;;;;;;4939802;28;19962;-65
2021/07/18 01:44:37;;;;;;;;;;;15.40;97.20;;;;;;4937204;28;19926;-67
2021/07/18 01:47:03;;;;;;;;;;;15.40;97.10;;;;;;4939980;28;19922;-66
2021/07/18 01:49:29;;;;;;;;;;;15.40;97.10;;;;;;4943196;29;19944;-67
2021/07/18 01:51:54;;;;;;;;;;;15.40;97.10;;;;;;4941853;28;20458;-65
2021/07/18 01:54:20;;;;;;;;;;;15.30;97.20;;;;;;4938370;29;19914;-66
2021/07/18 01:56:45;;;;;;;;;;;15.30;97.20;;;;;;4938668;28;19962;-66
2021/07/18 01:59:12;;;;;;;;;;;15.30;97.20;;;;;;4934872;28;20406;-66
2021/07/18 02:01:37;;;;;;;;;;;15.40;97.20;;;;;;4940495;28;19923;-65
2021/07/18 02:04:03;;;;;;;;;;;15.40;97.00;;;;;;4940413;29;20400;-66
2021/07/18 02:06:29;;;;;;;;;;;15.30;96.90;;;;;;4937573;28;20419;-66
2021/07/18 02:08:56;;;;;;;;;;;15.30;97.00;;;;;;4937699;29;20002;-66
2021/07/18 02:11:22;;;;;;;;;;;15.30;97.00;;;;;;4937429;28;19927;-65
2021/07/18 02:13:48;;;;;;;;;;;15.20;97.00;;;;;;4938127;28;20021;-66
2021/07/18 02:16:13;;;;;;;;;;;15.20;97.10;;;;;;4936757;28;19922;-66
2021/07/18 02:18:39;;;;;;;;;;;15.20;97.10;;;;;;4946404;29;19985;-66
2021/07/18 02:21:05;;;;;;;;;;;15.20;97.10;;;;;;4942129;29;19947;-65
2021/07/18 02:23:30;;;;;;;;;;;15.10;97.20;;;;;;4943140;29;19933;-65
2021/07/18 02:25:56;;;;;;;;;;;15.20;97.20;;;;;;4945858;28;20410;-66
2021/07/18 02:28:21;;;;;;;;;;;15.20;97.10;;;;;;4939125;28;19957;-64
2021/07/18 02:30:47;;;;;;;;;;;15.10;97.30;;;;;;4942300;28;19986;-66
2021/07/18 02:33:13;;;;;;;;;;;15.10;97.40;;;;;;4942777;28;19934;-66
2021/07/18 02:35:38;;;;;;;;;;;15.10;97.50;;;;;;4941080;29;20040;-65
2021/07/18 02:38:04;;;;;;;;;;;15.20;97.50;;;;;;4943973;29;19914;-65
2021/07/18 02:40:29;;;;;;;;;;;15.20;97.50;;;;;;4941379;29;19954;-66
2021/07/18 02:42:55;;;;;;;;;;;15.20;97.60;;;;;;4941388;28;19998;-66
2021/07/18 02:45:21;;;;;;;;;;;15.20;97.60;;;;;;4942123;28;19915;-63
2021/07/18 02:47:47;;;;;;;;;;;15.20;97.70;;;;;;4943638;28;19937;-65
2021/07/18 02:50:14;;;;;;;;;;;15.30;97.70;;;;;;4944764;28;20288;-66
2021/07/18 02:52:40;;;;;;;;;;;15.20;97.60;;;;;;4938900;28;19922;-65
2021/07/18 02:55:06;;;;;;;;;;;15.30;97.50;;;;;;4945300;28;19993;-65
2021/07/18 02:57:32;;;;;;;;;;;15.20;97.50;;;;;;4939691;29;20086;-66
2021/07/18 02:59:57;;;;;;;;;;;15.10;97.60;;;;;;4954337;28;20053;-67
2021/07/18 03:02:23;;;;;;;;;;;15.20;97.70;;;;;;4943637;29;20268;-66
2021/07/18 03:04:48;;;;;;;;;;;15.20;97.80;;;;;;4942442;28;20397;-65
2021/07/18 03:07:14;;;;;;;;;;;15.10;97.50;;;;;;4942737;28;19914;-65
2021/07/18 03:09:39;;;;;;;;;;;15.10;97.70;;;;;;4941610;28;19914;-65
2021/07/18 03:12:05;;;;;;;;;;;15.20;97.50;;;;;;4945303;28;20005;-66
2021/07/18 03:14:30;;;;;;;;;;;15.10;97.50;;;;;;4936049;28;20486;-66
2021/07/18 03:16:56;;;;;;;;;;;15.10;97.50;;;;;;4943268;28;19929;-65
2021/07/18 03:19:21;;;;;;;;;;;15.20;97.60;;;;;;4938335;28;19919;-65
2021/07/18 03:21:48;;;;;;;;;;;15.20;97.50;;;;;;4938568;28;19914;-67
2021/07/18 03:24:13;;;;;;;;;;;15.30;97.50;;;;;;4943073;28;20060;-66
2021/07/18 03:26:39;;;;;;;;;;;15.30;97.50;;;;;;4941940;28;20126;-65
2021/07/18 03:29:04;;;;;;;;;;;15.30;97.50;;;;;;4939800;28;19966;-66
2021/07/18 03:31:30;;;;;;;;;;;15.30;97.50;;;;;;4935635;29;19915;-66
2021/07/18 03:33:55;;;;;;;;;;;15.40;97.50;;;;;;4943595;29;20010;-66
2021/07/18 03:36:21;;;;;;;;;;;15.40;97.30;;;;;;4940330;29;19922;-66
2021/07/18 03:38:46;;;;;;;;;;;15.40;97.40;;;;;;4944833;28;19922;-65
2021/07/18 03:41:12;;;;;;;;;;;15.50;97.40;;;;;;4944238;28;20427;-67
2021/07/18 03:43:38;;;;;;;;;;;15.50;97.30;;;;;;4933990;28;19926;-66
2021/07/18 03:46:03;;;;;;;;;;;15.60;97.10;;;;;;4940153;28;19914;-65
2021/07/18 03:48:29;;;;;;;;;;;15.50;97.10;;;;;;4937973;28;19965;-65
2021/07/18 03:50:55;;;;;;;;;;;15.70;97.10;;;;;;4954581;28;19957;-66
2021/07/18 03:53:20;;;;;;;;;;;15.70;96.80;;;;;;4937520;28;19930;-65
2021/07/18 03:55:46;;;;;;;;;;;15.70;96.80;;;;;;4937496;28;19919;-65
2021/07/18 03:58:11;;;;;;;;;;;15.70;96.70;;;;;;4934527;28;19915;-66
2021/07/18 04:00:37;;;;;;;;;;;15.80;96.70;;;;;;4941938;29;19925;-65
2021/07/18 04:03:02;;;;;;;;;;;15.80;96.50;;;;;;4942808;28;20375;-65
2021/07/18 04:05:28;;;;;;;;;;;15.80;96.50;;;;;;4941250;28;20045;-67
2021/07/18 04:07:53;;;;;;;;;;;15.90;96.30;;;;;;4941932;28;19950;-66
2021/07/18 04:10:19;;;;;;;;;;;15.80;96.40;;;;;;4937696;28;20256;-66
2021/07/18 04:12:46;;;;;;;;;;;15.90;96.70;;;;;;4939177;28;19934;-66
2021/07/18 04:15:12;;;;;;;;;;;15.80;96.60;;;;;;4940518;28;20407;-66
2021/07/18 04:17:37;;;;;;;;;;;15.90;96.70;;;;;;4939739;29;20299;-66
2021/07/18 04:20:03;;;;;;;;;;;15.90;96.60;;;;;;4941857;29;20312;-66
2021/07/18 04:22:29;;;;;;;;;;;15.80;96.70;;;;;;4941938;28;19991;-65
2021/07/18 04:24:54;;;;;;;;;;;15.90;96.60;;;;;;4941722;28;20013;-67
2021/07/18 04:27:20;;;;;;;;;;;15.90;96.50;;;;;;4939319;28;20100;-66
2021/07/18 04:29:45;;;;;;;;;;;15.80;96.50;;;;;;4940833;29;20372;-66
2021/07/18 04:32:11;;;;;;;;;;;15.80;96.60;;;;;;4944165;28;20302;-66
2021/07/18 04:34:38;;;;;;;;;;;15.90;96.60;;;;;;4937136;28;20118;-65
2021/07/18 04:37:04;;;;;;;;;;;15.90;96.50;;;;;;4937411;28;20462;-65
2021/07/18 04:39:29;;;;;;;;;;;15.90;96.70;;;;;;4939395;28;19970;-66
2021/07/18 04:41:55;;;;;;;;;;;15.90;96.50;;;;;;4934717;29;19923;-66
2021/07/18 04:44:20;;;;;;;;;;;16.00;96.60;;;;;;4934298;29;20358;-66
2021/07/18 04:46:46;;;;;;;;;;;15.90;96.70;;;;;;4940387;28;19914;-66
2021/07/18 04:49:11;;;;;;;;;;;16.00;96.70;;;;;;4942171;28;20300;-66
2021/07/18 04:51:37;;;;;;;;;;;16.00;96.70;;;;;;4941224;29;19977;-67
2021/07/18 04:54:02;;;;;;;;;;;16.10;96.60;;;;;;4941090;29;20270;-65
2021/07/18 04:56:28;;;;;;;;;;;16.20;96.50;;;;;;4941152;28;20388;-66
2021/07/18 04:58:53;;;;;;;;;;;16.30;96.60;;;;;;4940250;28;20324;-66
2021/07/18 05:01:19;;;;;;;;;;;16.40;96.10;;;;;;4938159;28;19974;-66
2021/07/18 05:03:44;;;;;;;;;;;16.50;96.00;;;;;;4939615;28;19922;-65
2021/07/18 05:06:10;;;;;;;;;;;16.50;96.00;;;;;;4943443;28;19910;-65
2021/07/18 05:08:35;;;;;;;;;;;16.60;95.90;;;;;;4942752;28;20449;-66
2021/07/18 05:11:01;;;;;;;;;;;16.70;95.90;;;;;;4943336;28;19915;-66
2021/07/18 05:13:27;;;;;;;;;;;16.80;95.50;;;;;;4938112;29;19914;-65
2021/07/18 05:15:53;;;;;;;;;;;16.90;95.20;;;;;;4939365;28;20277;-66
2021/07/18 05:18:18;;;;;;;;;;;16.90;95.20;;;;;;4941278;28;20083;-66
2021/07/18 05:20:44;;;;;;;;;;;17.00;94.90;;;;;;4955792;28;20299;-66
2021/07/18 05:23:10;;;;;;;;;;;17.10;94.80;;;;;;4942507;28;20018;-66
2021/07/18 05:25:36;;;;;;;;;;;17.00;94.40;;;;;;4942057;29;20355;-67
2021/07/18 05:28:02;;;;;;;;;;;17.10;94.80;;;;;;4938350;28;19954;-66
2021/07/18 05:30:27;;;;;;;;;;;17.30;94.50;;;;;;4936774;28;19922;-67
2021/07/18 05:32:53;;;;;;;;;;;17.40;94.20;;;;;;4939493;28;19918;-66
2021/07/18 05:35:18;;;;;;;;;;;17.50;94.10;;;;;;4941243;28;20395;-67
2021/07/18 05:37:44;;;;;;;;;;;17.50;93.80;;;;;;4956681;28;19985;-67
2021/07/18 05:40:10;;;;;;;;;;;17.50;93.90;;;;;;4937871;28;20364;-66
2021/07/18 05:42:35;;;;;;;;;;;17.60;93.70;;;;;;4934103;29;19915;-66
2021/07/18 05:45:01;;;;;;;;;;;17.70;93.50;;;;;;4937782;28;20075;-67
2021/07/18 05:47:28;;;;;;;;;;;17.70;93.20;;;;;;4939054;29;19965;-66
2021/07/18 05:49:53;;;;;;;;;;;17.80;93.10;;;;;;4942502;28;19911;-66
2021/07/18 05:52:19;;;;;;;;;;;17.80;92.80;;;;;;4949916;28;20233;-66
2021/07/18 05:54:44;;;;;;;;;;;17.80;93.00;;;;;;4943894;28;19970;-67
2021/07/18 05:57:09;;;;;;;;;;;17.70;92.80;;;;;;4944782;28;20170;-65
2021/07/18 05:59:35;;;;;;;;;;;17.80;93.10;;;;;;4941838;28;20447;-66
2021/07/18 06:02:00;;;;;;;;;;;17.90;92.60;;;;;;4941276;28;19914;-65
2021/07/18 06:04:27;;;;;;;;;;;18.00;92.90;;;;;;4942960;28;19999;-66
2021/07/18 06:06:53;;;;;;;;;;;18.20;92.40;;;;;;4941257;28;20145;-66
2021/07/18 06:09:18;;;;;;;;;;;18.50;92.40;;;;;;4945115;28;19914;-66
2021/07/18 06:11:44;;;;;;;;;;;18.50;91.70;;;;;;4944690;28;20066;-66
2021/07/18 06:14:09;;;;;;;;;;;18.60;91.30;;;;;;4945519;29;19915;-66
2021/07/18 06:16:35;;;;;;;;;;;18.50;91.10;;;;;;4942669;29;19918;-67
2021/07/18 06:19:00;;;;;;;;;;;18.60;91.40;;;;;;4943690;28;19922;-67
2021/07/18 06:21:26;;;;;;;;;;;18.80;90.60;;;;;;4943625;29;19914;-67
2021/07/18 06:23:51;;;;;;;;;;;18.80;89.90;;;;;;4944006;28;19945;-66
2021/07/18 06:26:17;;;;;;;;;;;18.80;90.40;;;;;;4943996;29;19918;-69
2021/07/18 06:28:42;;;;;;;;;;;19.00;89.80;;;;;;4939959;29;19925;-65
2021/07/18 06:31:08;;;;;;;;;;;19.20;89.40;;;;;;4938177;28;19922;-66
2021/07/18 06:33:33;;;;;;;;;;;19.20;88.50;;;;;;4943767;28;20006;-65
2021/07/18 06:35:59;;;;;;;;;;;19.20;88.60;;;;;;4946700;28;19933;-67
2021/07/18 06:38:24;;;;;;;;;;;19.10;87.70;;;;;;4943951;29;19986;-68
2021/07/18 06:40:50;;;;;;;;;;;19.00;87.80;;;;;;4937748;28;19918;-67
2021/07/18 06:43:15;;;;;;;;;;;19.20;88.40;;;;;;4939753;29;19926;-67
2021/07/18 06:45:41;;;;;;;;;;;19.40;87.20;;;;;;4944802;28;19923;-66
2021/07/18 06:48:07;;;;;;;;;;;19.50;86.10;;;;;;4944461;28;19969;-68
2021/07/18 06:50:33;;;;;;;;;;;19.60;85.60;;;;;;4946560;28;19915;-67
2021/07/18 06:52:58;;;;;;;;;;;19.70;85.50;;;;;;4940587;28;19969;-66
2021/07/18 06:55:24;;;;;;;;;;;19.70;85.20;;;;;;4944831;28;20001;-67
2021/07/18 06:57:50;;;;;;;;;;;20.00;85.20;;;;;;4943252;28;20391;-66
2021/07/18 07:00:16;;;;;;;;;;;20.10;84.20;;;;;;4934919;28;19915;-67
2021/07/18 07:02:42;;;;;;;;;;;20.20;83.20;;;;;;4941082;28;19929;-66
2021/07/18 07:05:07;;;;;;;;;;;20.10;84.00;;;;;;4941763;28;19923;-68
2021/07/18 07:07:33;;;;;;;;;;;20.10;83.80;;;;;;4943000;28;19918;-68
2021/07/18 07:09:58;;;;;;;;;;;19.90;83.40;;;;;;4945924;29;19960;-66
2021/07/18 07:12:24;;;;;;;;;;;19.90;83.60;;;;;;4937622;29;19929;-66
2021/07/18 07:14:49;;;;;;;;;;;19.70;83.50;;;;;;4940842;28;20381;-67
2021/07/18 07:17:15;;;;;;;;;;;20.00;83.30;;;;;;4941755;28;20026;-66
2021/07/18 07:19:41;;;;;;;;;;;20.20;82.70;;;;;;4944338;28;19942;-68
2021/07/18 07:22:06;;;;;;;;;;;20.50;81.70;;;;;;4941136;28;20263;-69
2021/07/18 07:24:32;;;;;;;;;;;20.60;81.00;;;;;;4939416;29;19915;-68
2021/07/18 07:26:57;;;;;;;;;;;20.70;81.30;;;;;;4941860;28;19926;-67
2021/07/18 07:29:23;;;;;;;;;;;20.70;80.60;;;;;;4941838;28;20353;-69
2021/07/18 07:31:48;;;;;;;;;;;20.90;80.20;;;;;;4943448;28;19915;-70
2021/07/18 07:34:14;;;;;;;;;;;21.00;79.80;;;;;;4942056;28;20031;-66
2021/07/18 07:36:39;;;;;;;;;;;20.80;80.20;;;;;;4940833;28;20001;-68
2021/07/18 07:39:05;;;;;;;;;;;20.90;80.10;;;;;;4941897;28;20364;-67
2021/07/18 07:41:30;;;;;;;;;;;21.20;79.30;;;;;;4944081;28;19926;-67
2021/07/18 07:43:57;;;;;;;;;;;21.10;79.40;;;;;;4939813;28;20289;-69
2021/07/18 07:46:24;;;;;;;;;;;21.10;78.80;;;;;;4945079;29;20311;-68
2021/07/18 07:48:50;;;;;;;;;;;21.40;77.70;;;;;;4938522;28;19930;-69
2021/07/18 07:51:15;;;;;;;;;;;21.30;76.80;;;;;;4944559;29;20231;-67
2021/07/18 07:53:41;;;;;;;;;;;21.60;77.40;;;;;;4939059;28;20231;-68
2021/07/18 07:56:06;;;;;;;;;;;21.90;77.60;;;;;;4940917;28;19954;-68
2021/07/18 07:58:32;;;;;;;;;;;21.60;76.20;;;;;;4926988;28;19929;-69
2021/07/18 08:00:57;;;;;;;;;;;21.90;76.60;;;;;;4939793;28;19923;-66
2021/07/18 08:03:23;;;;;;;;;;;22.00;75.20;;;;;;4938765;28;19926;-68
2021/07/18 08:05:49;;;;;;;;;;;22.10;75.00;;;;;;4941077;28;20230;-67
2021/07/18 08:08:14;;;;;;;;;;;21.90;76.10;;;;;;4939278;28;19919;-67
2021/07/18 08:10:39;;;;;;;;;;;22.00;74.80;;;;;;4939635;29;20405;-67
2021/07/18 08:13:05;;;;;;;;;;;22.20;75.10;;;;;;4941801;29;20048;-67
2021/07/18 08:15:31;;;;;;;;;;;21.90;75.70;;;;;;4942038;28;19919;-67
2021/07/18 08:17:56;;;;;;;;;;;22.30;75.20;;;;;;4943440;28;19998;-71
2021/07/18 08:20:23;;;;;;;;;;;22.30;74.30;;;;;;4940755;28;20333;-70
2021/07/18 08:22:50;;;;;;;;;;;22.00;75.70;;;;;;4944775;28;20304;-69
2021/07/18 08:25:16;;;;;;;;;;;22.00;75.80;;;;;;4943133;28;20333;-68
2021/07/18 08:27:41;;;;;;;;;;;22.30;75.20;;;;;;4941891;28;19923;-68
2021/07/18 08:30:07;;;;;;;;;;;22.30;73.00;;;;;;4942267;28;19925;-68
2021/07/18 08:32:33;;;;;;;;;;;22.40;73.80;;;;;;4939221;29;20335;-67
2021/07/18 08:34:59;;;;;;;;;;;22.50;73.90;;;;;;4942032;28;20006;-71
2021/07/18 08:37:24;;;;;;;;;;;22.30;73.50;;;;;;4954446;28;19927;-68
2021/07/18 08:39:51;;;;;;;;;;;22.50;72.50;;;;;;4943043;28;19978;-68
2021/07/18 08:42:17;;;;;;;;;;;22.60;72.30;;;;;;4937890;28;19954;-68
2021/07/18 08:44:42;;;;;;;;;;;22.80;71.00;;;;;;4939124;28;19968;-68
2021/07/18 08:47:08;;;;;;;;;;;22.70;70.70;;;;;;4943393;28;19986;-68
2021/07/18 08:49:34;;;;;;;;;;;22.70;70.70;;;;;;4943160;28;19922;-71
2021/07/18 08:52:00;;;;;;;;;;;23.00;70.60;;;;;;4942462;28;20496;-67
2021/07/18 08:54:26;;;;;;;;;;;23.40;69.00;;;;;;4942460;28;19919;-68
2021/07/18 08:56:53;;;;;;;;;;;23.70;69.60;;;;;;4941914;28;19918;-68
2021/07/18 08:59:19;;;;;;;;;;;22.90;70.50;;;;;;4934945;28;20014;-68
2021/07/18 09:01:45;;;;;;;;;;;22.70;71.40;;;;;;4940867;28;20356;-67
2021/07/18 09:04:10;;;;;;;;;;;23.10;70.20;;;;;;4942421;28;20017;-68
2021/07/18 09:06:46;;;;;;;;;;;23.00;71.00;;;;;;4941212;29;19915;-67
2021/07/18 09:09:13;;;;;;;;;;;23.60;71.60;;;;;;4941067;28;19915;-68
2021/07/18 09:11:38;;;;;;;;;;;24.00;68.30;;;;;;4950815;28;19944;-68
2021/07/18 09:14:05;;;;;;;;;;;24.10;66.80;;;;;;4934381;28;19969;-68
2021/07/18 09:16:39;;;;;;;;;;;23.80;68.10;;;;;;4942499;28;19993;-68
2021/07/18 09:19:23;;;;;;;;;;;23.40;69.50;;;;;;4936628;28;20352;-67
2021/07/18 09:22:05;;;;;;;;;;;23.30;69.50;;;;;;4952862;28;19925;-67
2021/07/18 09:24:32;;;;;;;;;;;23.80;68.30;;;;;;4936059;29;20277;-68
2021/07/18 09:27:06;;;;;;;;;;;24.00;66.10;;;;;;4940714;28;20614;-68
2021/07/18 09:29:33;;;;;;;;;;;25.00;63.30;;;;;;4936465;28;20528;-68
2021/07/18 09:32:05;;;;;;;;;;;24.90;63.70;;;;;;4939296;28;19962;-68
2021/07/18 09:34:38;;;;;;;;;;;24.00;66.80;;;;;;4950583;28;20280;-66
2021/07/18 09:37:08;;;;;;;;;;;23.50;68.80;;;;;;4944155;28;20273;-68
2021/07/18 09:39:34;;;;;;;;;;;23.80;67.30;;;;;;4938750;28;19925;-69
2021/07/18 09:41:59;;;;;;;;;;;24.50;64.90;;;;;;4936564;29;19919;-69
2021/07/18 09:44:25;;;;;;;;;;;24.80;62.90;;;;;;4938932;28;19915;-70
2021/07/18 09:46:50;;;;;;;;;;;24.70;63.60;;;;;;4936775;28;19937;-68
2021/07/18 09:49:34;;;;;;;;;;;25.00;64.00;;;;;;4934270;28;19922;-68
2021/07/18 09:52:12;;;;;;;;;;;25.50;62.90;;;;;;4934081;28;19922;-68
2021/07/18 09:54:38;;;;;;;;;;;24.40;63.40;;;;;;4939574;29;19929;-67
2021/07/18 09:57:03;;;;;;;;;;;24.40;63.80;;;;;;4937782;28;19918;-67
2021/07/18 09:59:28;;;;;;;;;;;24.50;64.20;;;;;;4933682;28;19940;-68
2021/07/18 10:01:54;;;;;;;;;;;24.60;62.00;;;;;;4942163;28;20329;-67
2021/07/18 10:04:19;;;;;;;;;;;24.80;62.60;;;;;;4941341;29;19993;-67
2021/07/18 10:06:45;;;;;;;;;;;25.40;61.00;;;;;;4942543;29;19990;-69
2021/07/18 10:09:12;;;;;;;;;;;25.80;60.00;;;;;;4939642;29;19925;-67
2021/07/18 10:11:38;;;;;;;;;;;25.10;62.30;;;;;;4942141;28;19922;-68
2021/07/18 10:14:05;;;;;;;;;;;24.50;64.50;;;;;;4933022;28;20293;-69
2021/07/18 10:16:32;;;;;;;;;;;24.50;64.50;;;;;;4938671;28;19927;-67
2021/07/18 10:18:58;;;;;;;;;;;25.10;62.30;;;;;;4942064;28;19929;-69
2021/07/18 10:21:27;;;;;;;;;;;25.50;60.80;;;;;;4941749;28;20292;-67
2021/07/18 10:23:54;;;;;;;;;;;25.70;60.50;;;;;;4941428;28;19915;-67
2021/07/18 10:26:26;;;;;;;;;;;25.20;61.70;;;;;;4941804;29;19955;-68
2021/07/18 10:28:52;;;;;;;;;;;25.30;60.30;;;;;;4936422;28;19926;-69
2021/07/18 10:31:35;;;;;;;;;;;25.40;60.90;;;;;;4942427;29;19918;-68
2021/07/18 10:34:03;;;;;;;;;;;25.60;60.40;;;;;;4938314;28;20348;-67
2021/07/18 10:36:28;;;;;;;;;;;26.10;56.20;;;;;;4941302;29;19929;-67
2021/07/18 10:38:54;;;;;;;;;;;26.50;55.90;;;;;;4941802;28;20363;-70
2021/07/18 10:41:38;;;;;;;;;;;25.70;59.70;;;;;;4943068;28;19922;-68
2021/07/18 10:44:11;;;;;;;;;;;24.80;62.90;;;;;;4935103;28;19930;-68
2021/07/18 10:46:42;;;;;;;;;;;25.50;62.20;;;;;;4936026;28;19914;-67
2021/07/18 10:49:12;;;;;;;;;;;25.60;59.30;;;;;;4940260;28;19921;-70
2021/07/18 10:51:39;;;;;;;;;;;26.00;58.70;;;;;;4940239;29;19933;-68
2021/07/18 10:54:07;;;;;;;;;;;26.00;56.70;;;;;;4942354;28;19919;-68
2021/07/18 10:56:42;;;;;;;;;;;26.50;54.60;;;;;;4943508;29;19918;-68
2021/07/18 10:59:08;;;;;;;;;;;26.60;54.50;;;;;;4939495;28;20288;-68
2021/07/18 11:01:35;;;;;;;;;;;26.70;56.50;;;;;;4934115;28;20009;-69
2021/07/18 11:04:01;;;;;;;;;;;26.90;56.50;;;;;;4943755;28;19929;-70
2021/07/18 11:06:30;;;;;;;;;;;26.60;56.10;;;;;;4943461;28;19921;-71
2021/07/18 11:09:08;;;;;;;;;;;26.50;57.30;;;;;;4945108;28;19915;-69
2021/07/18 11:11:47;;;;;;;;;;;26.70;54.40;;;;;;4943536;28;19961;-68
2021/07/18 11:14:31;;;;;;;;;;;27.20;54.40;;;;;;4941709;29;19989;-70
2021/07/18 11:16:58;;;;;;;;;;;26.30;55.80;;;;;;4941552;29;19944;-69
2021/07/18 11:19:39;;;;;;;;;;;26.00;57.70;;;;;;4945895;28;20405;-69
2021/07/18 11:22:06;;;;;;;;;;;25.70;59.20;;;;;;4941124;28;19984;-68
2021/07/18 11:24:54;;;;;;;;;;;26.20;58.40;;;;;;4943535;28;20365;-68
2021/07/18 11:27:33;;;;;;;;;;;26.80;56.10;;;;;;4940352;29;19938;-68
2021/07/18 11:29:59;;;;;;;;;;;26.90;55.10;;;;;;4941341;28;19937;-69
2021/07/18 11:32:26;;;;;;;;;;;27.50;52.20;;;;;;4939670;28;20137;-68
2021/07/18 11:34:53;;;;;;;;;;;27.00;54.30;;;;;;4939954;28;20468;-68
2021/07/18 11:37:19;;;;;;;;;;;26.90;56.40;;;;;;4943253;28;20456;-69
2021/07/18 11:39:45;;;;;;;;;;;27.50;53.90;;;;;;4941423;28;20007;-70
2021/07/18 11:42:12;;;;;;;;;;;27.60;53.90;;;;;;4943103;28;20248;-68
2021/07/18 11:44:42;;;;;;;;;;;27.10;55.70;;;;;;4939303;28;20360;-67
2021/07/18 11:47:09;;;;;;;;;;;27.80;52.10;;;;;;4942457;29;20044;-68
2021/07/18 11:49:35;;;;;;;;;;;27.70;52.00;;;;;;4939102;28;20390;-68
2021/07/18 11:52:02;;;;;;;;;;;27.70;52.50;;;;;;4941659;28;19914;-70
2021/07/18 11:54:28;;;;;;;;;;;27.90;51.60;;;;;;4937119;29;19930;-68
2021/07/18 11:56:53;;;;;;;;;;;27.90;51.10;;;;;;4940394;29;19922;-69
2021/07/18 11:59:20;;;;;;;;;;;28.20;50.30;;;;;;4940877;28;20205;-68
2021/07/18 12:01:50;;;;;;;;;;;27.40;53.30;;;;;;4941624;28;19978;-69
2021/07/18 12:04:22;;;;;;;;;;;27.30;53.60;;;;;;4938869;28;20074;-67
2021/07/18 12:06:48;;;;;;;;;;;27.10;52.90;;;;;;4942324;28;19915;-67
2021/07/18 12:09:15;;;;;;;;;;;27.00;54.00;;;;;;4940222;28;19918;-68
2021/07/18 12:11:41;;;;;;;;;;;27.80;53.50;;;;;;4942885;28;20260;-68
2021/07/18 12:14:07;;;;;;;;;;;28.40;53.30;;;;;;4939176;28;19922;-69
2021/07/18 12:16:33;;;;;;;;;;;27.90;51.90;;;;;;4936602;28;20248;-67
2021/07/18 12:18:58;;;;;;;;;;;28.50;49.40;;;;;;4941212;28;19923;-69
2021/07/18 12:21:28;;;;;;;;;;;28.30;50.00;;;;;;4946035;28;19941;-68
2021/07/18 12:24:12;;;;;;;;;;;27.80;50.90;;;;;;4937344;28;19914;-69
2021/07/18 12:26:38;;;;;;;;;;;27.50;51.80;;;;;;4942871;28;19933;-68
2021/07/18 12:29:08;;;;;;;;;;;28.10;52.10;;;;;;4939311;28;20273;-68
2021/07/18 12:31:49;;;;;;;;;;;28.90;49.70;;;;;;4939227;28;19986;-70
2021/07/18 12:34:15;;;;;;;;;;;29.10;47.80;;;;;;4939998;28;19949;-68
2021/07/18 12:36:51;;;;;;;;;;;29.10;47.10;;;;;;4942642;28;20000;-70
2021/07/18 12:39:16;;;;;;;;;;;29.00;47.50;;;;;;4939322;28;19941;-70
2021/07/18 12:41:42;;;;;;;;;;;28.90;46.40;;;;;;4941450;28;19984;-70
2021/07/18 12:44:08;;;;;;;;;;;28.80;47.30;;;;;;4935914;28;19927;-69
2021/07/18 12:46:33;;;;;;;;;;;28.60;49.00;;;;;;4935046;28;19914;-69
2021/07/18 12:49:06;;;;;;;;;;;28.80;46.80;;;;;;4940543;28;20129;-68
2021/07/18 12:51:32;;;;;;;;;;;29.50;45.80;;;;;;4946248;28;20345;-71
2021/07/18 12:53:57;;;;;;;;;;;29.90;45.80;;;;;;4937056;28;20017;-69
2021/07/18 12:56:23;;;;;;;;;;;29.50;45.90;;;;;;4940912;28;19929;-69
2021/07/18 12:58:50;;;;;;;;;;;29.50;45.70;;;;;;4935469;28;19918;-70
2021/07/18 13:01:18;;;;;;;;;;;29.40;46.00;;;;;;4944756;28;19978;-68
2021/07/18 13:03:44;;;;;;;;;;;29.70;45.90;;;;;;4939272;28;20008;-68
2021/07/18 13:06:11;;;;;;;;;;;29.60;45.90;;;;;;4938056;28;20317;-70
2021/07/18 13:08:37;;;;;;;;;;;28.70;46.10;;;;;;4938204;28;19923;-68
2021/07/18 13:11:02;;;;;;;;;;;29.10;45.90;;;;;;4940317;28;19949;-68
2021/07/18 13:13:34;;;;;;;;;;;29.30;43.60;;;;;;4941063;28;19918;-70
2021/07/18 13:16:01;;;;;;;;;;;30.10;44.00;;;;;;4937851;28;19921;-70
2021/07/18 13:18:34;;;;;;;;;;;29.90;42.50;;;;;;4938696;28;20026;-67
2021/07/18 13:21:13;;;;;;;;;;;30.00;42.40;;;;;;4953537;28;20341;-66
2021/07/18 13:23:40;;;;;;;;;;;30.10;43.20;;;;;;4937405;28;19934;-67
2021/07/18 13:26:05;;;;;;;;;;;30.00;42.70;;;;;;4941779;28;19918;-67
2021/07/18 13:28:31;;;;;;;;;;;29.30;44.10;;;;;;4936864;29;20429;-67
2021/07/18 13:30:56;;;;;;;;;;;29.60;44.30;;;;;;4939532;28;19922;-68
2021/07/18 13:33:22;;;;;;;;;;;29.20;45.20;;;;;;4935252;29;19911;-66
2021/07/18 13:35:49;;;;;;;;;;;28.00;47.80;;;;;;4940132;29;19922;-66
2021/07/18 13:38:21;;;;;;;;;;;27.10;50.50;;;;;;4941551;28;20244;-66
2021/07/18 13:40:46;;;;;;;;;;;27.00;52.10;;;;;;4941597;28;19919;-66
2021/07/18 13:43:17;;;;;;;;;;;26.90;51.80;;;;;;4939597;28;20245;-66
2021/07/18 13:45:50;;;;;;;;;;;27.30;51.30;;;;;;4938439;28;19982;-66
2021/07/18 13:48:20;;;;;;;;;;;28.20;49.40;;;;;;4938836;28;19914;-67
2021/07/18 13:50:46;;;;;;;;;;;28.10;50.20;;;;;;4954961;28;19930;-65
2021/07/18 13:53:11;;;;;;;;;;;27.40;51.40;;;;;;4935568;28;19941;-67
2021/07/18 13:55:37;;;;;;;;;;;28.10;49.80;;;;;;4952573;28;20280;-67
2021/07/18 13:58:03;;;;;;;;;;;29.00;47.10;;;;;;4940365;28;20399;-70
2021/07/18 14:00:29;;;;;;;;;;;29.50;45.30;;;;;;4941119;28;19915;-67
2021/07/18 14:02:55;;;;;;;;;;;29.20;45.50;;;;;;4935670;29;19941;-68
2021/07/18 14:05:22;;;;;;;;;;;29.10;46.70;;;;;;4938588;28;20486;-66
2021/07/18 14:07:47;;;;;;;;;;;28.70;48.30;;;;;;4937985;28;20045;-66
2021/07/18 14:10:13;;;;;;;;;;;29.20;47.20;;;;;;4938274;28;20084;-68
2021/07/18 14:12:40;;;;;;;;;;;28.80;46.70;;;;;;4941160;28;20253;-66
2021/07/18 14:15:07;;;;;;;;;;;29.20;46.70;;;;;;4942834;28;20411;-67